Timpas, Colorado
Current Conditions -  °F | °C
As of 12:53 AM on Tuesday 21 Oct 2014 (Local Time) from KLHX Reporting Station
Clear Clear  
Wind Chill: 52°   Ceiling: Unl
Heat Index: 52°   Visibility: 10mi
Dew Point: 46°   Wind: 5mph
Humidity: 80%   Direction: 90°E
Pressure: 30.09"   Gusts: NA
Location:  37.8368°N, 103.544°W
Report Text: KLHX 210653Z AUTO 09004KT 10SM CLR 11/08 A3009 RMK AO2 SLP148 T01110078 402440061
Loading
Personal Weather Stations






























Interactive Weather Map
Tropical Storm Tracking
New forecast layout! Learn more

10-Day Weather Forecast

Advertisements
Track Severe Weather on mobile